Time;durP1;ratioP1;P1;durP2;ratioP2;P2;SDS_P1;SDS_P2;PMS_P1;PMS_P2;Temp;Humidity;BMP_temperature;BMP_pressure;BME280_temperature;BME280_humidity;BME280_pressure;Samples;Min_cycle;Max_cycle;Signal;HPM_P1;HPM_P2
2022/10/30 00:00:40;;;;;;;21.88;12.65;;;13.90;99.90;;;;;;5040636;28;20040;-28
2022/10/30 00:03:09;;;;;;;19.48;11.75;;;14.00;99.90;;;;;;5044532;28;20402;-28
2022/10/30 00:05:34;;;;;;;16.73;11.32;;;14.00;99.90;;;;;;5044419;28;20048;-28
2022/10/30 00:08:00;;;;;;;16.48;12.27;;;14.10;99.90;;;;;;5049636;28;20082;-28
2022/10/30 00:10:26;;;;;;;18.25;11.25;;;14.20;99.90;;;;;;5043255;28;20034;-28
2022/10/30 00:12:52;;;;;;;17.85;10.77;;;14.20;99.90;;;;;;5048042;28;20041;-28
2022/10/30 00:15:18;;;;;;;20.23;11.95;;;14.20;99.90;;;;;;5040817;28;20048;-28
2022/10/30 00:17:44;;;;;;;19.05;10.80;;;14.20;99.90;;;;;;5043198;28;20482;-28
2022/10/30 00:20:10;;;;;;;18.73;11.23;;;14.20;99.90;;;;;;5050379;28;20041;-29
2022/10/30 00:22:36;;;;;;;18.67;11.55;;;14.20;99.90;;;;;;5042085;28;20447;-28
2022/10/30 00:25:03;;;;;;;15.43;11.10;;;14.20;99.90;;;;;;5063690;28;20047;-28
2022/10/30 00:27:28;;;;;;;19.38;11.27;;;14.20;99.90;;;;;;5040561;28;20044;-28
2022/10/30 00:29:54;;;;;;;16.52;11.25;;;14.10;99.90;;;;;;5032917;28;20033;-28
2022/10/30 00:32:20;;;;;;;16.63;11.10;;;14.10;99.90;;;;;;5042028;28;20090;-28
2022/10/30 00:34:45;;;;;;;18.67;11.27;;;14.00;99.90;;;;;;5046152;28;20036;-28
2022/10/30 00:37:11;;;;;;;20.95;11.60;;;14.00;99.90;;;;;;5042827;28;20308;-28
2022/10/30 00:39:37;;;;;;;24.35;12.13;;;14.00;99.90;;;;;;5040678;28;20037;-28
2022/10/30 00:42:03;;;;;;;16.63;11.85;;;14.00;99.90;;;;;;5046166;28;20095;-28
2022/10/30 00:44:44;;;;;;;17.90;11.55;;;13.90;99.90;;;;;;5046393;28;20029;-28
2022/10/30 00:47:50;;;;;;;19.33;10.93;;;13.90;99.90;;;;;;5050164;28;20078;-28
2022/10/30 00:50:24;;;;;;;22.77;12.02;;;13.90;99.90;;;;;;5052370;28;20036;-28
2022/10/30 00:53:01;;;;;;;23.88;13.10;;;13.90;99.90;;;;;;5039745;28;20397;-28
2022/10/30 00:55:38;;;;;;;17.65;10.45;;;13.80;99.90;;;;;;5042446;28;20055;-28
2022/10/30 00:58:08;;;;;;;19.90;12.13;;;13.80;99.90;;;;;;5043099;28;20480;-28
2022/10/30 01:00:35;;;;;;;14.27;10.65;;;13.80;99.90;;;;;;5053789;28;20389;-28
2022/10/30 01:03:02;;;;;;;15.93;11.20;;;13.70;99.90;;;;;;5063244;28;20033;-28
2022/10/30 01:05:30;;;;;;;17.08;11.48;;;13.70;99.90;;;;;;5038561;28;20505;-28
2022/10/30 01:07:55;;;;;;;15.38;10.75;;;13.60;99.90;;;;;;5045296;28;20037;-28
2022/10/30 01:10:21;;;;;;;20.73;12.52;;;13.60;99.90;;;;;;5072453;28;20032;-28
2022/10/30 01:12:50;;;;;;;15.73;11.88;;;13.50;99.90;;;;;;5049245;28;20041;-28
2022/10/30 01:15:18;;;;;;;16.02;11.82;;;13.40;99.90;;;;;;5052239;28;20401;-28
2022/10/30 01:18:39;;;;;;;20.30;12.25;;;13.40;99.90;;;;;;5048131;28;20037;-29
2022/10/30 01:21:21;;;;;;;18.40;11.25;;;13.30;99.90;;;;;;4982350;28;20411;-29
2022/10/30 01:24:29;;;;;;;20.00;12.68;;;13.20;99.90;;;;;;5035837;28;20029;-28
2022/10/30 01:27:39;;;;;;;18.17;12.15;;;13.10;99.90;;;;;;5005970;28;20094;-28
2022/10/30 01:30:31;;;;;;;17.88;12.52;;;13.00;99.90;;;;;;5014384;28;20427;-28
2022/10/30 01:33:12;;;;;;;16.45;12.48;;;13.00;99.90;;;;;;5040280;28;20053;-28
2022/10/30 01:35:51;;;;;;;19.02;11.48;;;12.90;99.90;;;;;;5053415;28;20048;-28
2022/10/30 01:38:27;;;;;;;18.65;12.45;;;12.80;99.90;;;;;;5047122;28;20048;-28
2022/10/30 01:40:53;;;;;;;16.30;12.73;;;12.80;99.90;;;;;;5055654;28;20493;-29
2022/10/30 01:43:19;;;;;;;20.15;13.50;;;12.80;99.90;;;;;;5044336;28;20159;-29
2022/10/30 01:46:02;;;;;;;20.02;12.75;;;12.80;99.90;;;;;;5045499;28;20040;-29
2022/10/30 01:48:31;;;;;;;;;;;12.80;99.90;;;;;;5045193;28;20094;-29
2022/10/30 01:51:08;;;;;;;16.85;11.13;;;12.70;99.90;;;;;;5055427;28;19920;-29
2022/10/30 01:53:52;;;;;;;21.38;13.18;;;12.70;99.90;;;;;;5069279;28;20498;-29
2022/10/30 01:56:18;;;;;;;17.30;11.98;;;12.70;99.90;;;;;;5051699;28;20045;-29
2022/10/30 01:58:56;;;;;;;17.70;12.73;;;12.70;99.90;;;;;;5054559;28;20051;-29
2022/10/30 02:01:23;;;;;;;20.05;12.82;;;12.70;99.90;;;;;;5041269;28;20127;-29
2022/10/30 02:03:49;;;;;;;17.63;12.55;;;12.60;99.90;;;;;;5067652;28;20033;-29
2022/10/30 02:06:16;;;;;;;18.10;12.73;;;12.60;99.90;;;;;;5054077;28;20043;-29
2022/10/30 02:08:42;;;;;;;17.52;13.23;;;12.60;99.90;;;;;;5048547;28;20029;-29
2022/10/30 02:11:09;;;;;;;19.67;12.63;;;12.60;99.90;;;;;;5043156;28;20371;-29
2022/10/30 02:13:36;;;;;;;19.85;12.82;;;12.50;99.90;;;;;;5044140;28;20075;-29
2022/10/30 02:16:02;;;;;;;19.42;12.50;;;12.50;99.90;;;;;;5048830;28;20043;-29
2022/10/30 02:18:28;;;;;;;16.75;12.70;;;12.50;99.90;;;;;;5044774;28;20045;-29
2022/10/30 02:20:54;;;;;;;16.15;12.70;;;12.50;99.90;;;;;;5029878;28;20052;-29
2022/10/30 02:23:21;;;;;;;19.98;12.98;;;12.40;99.90;;;;;;5040671;28;20513;-29
2022/10/30 02:25:47;;;;;;;20.52;14.30;;;12.40;99.90;;;;;;5040115;28;20064;-29
2022/10/30 02:28:13;;;;;;;22.08;14.23;;;12.40;99.90;;;;;;5051140;28;20458;-29
2022/10/30 02:30:42;;;;;;;18.08;12.70;;;12.40;99.90;;;;;;5060620;28;20113;-29
2022/10/30 02:33:09;;;;;;;20.42;14.23;;;12.40;99.90;;;;;;5049672;28;20040;-29
2022/10/30 02:35:38;;;;;;;19.52;12.63;;;12.30;99.90;;;;;;5047482;28;20048;-29
2022/10/30 02:38:03;;;;;;;21.70;13.48;;;12.30;99.90;;;;;;5061381;28;20547;-29
2022/10/30 02:40:29;;;;;;;21.35;13.63;;;12.30;99.90;;;;;;5046339;28;20044;-29
2022/10/30 02:42:55;;;;;;;19.38;13.55;;;12.40;99.90;;;;;;5039807;28;20033;-29
2022/10/30 02:45:21;;;;;;;20.20;13.65;;;12.40;99.90;;;;;;5043551;28;20519;-29
2022/10/30 02:47:47;;;;;;;23.45;14.43;;;12.40;99.90;;;;;;5047516;28;20418;-29
2022/10/30 02:50:13;;;;;;;22.52;14.35;;;12.30;99.90;;;;;;5048778;28;20060;-29
2022/10/30 02:52:39;;;;;;;20.60;14.50;;;12.40;99.90;;;;;;5038659;28;20089;-29
2022/10/30 02:55:04;;;;;;;19.30;13.68;;;12.50;99.90;;;;;;5042371;28;20190;-29
2022/10/30 02:57:30;;;;;;;20.63;12.95;;;12.50;99.90;;;;;;5041448;28;20443;-29
2022/10/30 02:59:56;;;;;;;19.35;13.70;;;12.50;99.90;;;;;;5042864;28;20032;-29
2022/10/30 03:02:22;;;;;;;21.25;12.88;;;12.50;99.90;;;;;;5043257;28;20072;-29
2022/10/30 03:04:48;;;;;;;19.42;12.18;;;12.50;99.90;;;;;;5048021;28;20055;-29
2022/10/30 03:07:13;;;;;;;18.60;12.88;;;12.40;99.90;;;;;;5039983;28;20036;-29
2022/10/30 03:09:39;;;;;;;20.65;13.35;;;12.50;99.90;;;;;;5042854;28;20028;-29
2022/10/30 03:12:05;;;;;;;20.13;12.35;;;12.50;99.90;;;;;;5039176;28;20029;-29
2022/10/30 03:14:31;;;;;;;18.70;12.25;;;12.60;99.90;;;;;;5043029;28;20062;-29
2022/10/30 03:16:57;;;;;;;24.75;12.32;;;12.60;99.90;;;;;;5043435;28;20070;-29
2022/10/30 03:19:23;;;;;;;23.63;13.30;;;12.70;99.90;;;;;;5048207;28;20040;-29
2022/10/30 03:21:48;;;;;;;16.42;11.75;;;12.70;99.90;;;;;;5051349;28;20111;-29
2022/10/30 03:24:14;;;;;;;17.05;11.50;;;12.70;99.90;;;;;;5042655;28;20044;-29
2022/10/30 03:26:40;;;;;;;22.17;13.13;;;12.70;99.90;;;;;;5043206;28;20072;-29
2022/10/30 03:29:06;;;;;;;19.17;12.80;;;12.70;99.90;;;;;;5041439;28;20108;-29
2022/10/30 03:31:32;;;;;;;22.98;12.60;;;12.60;99.90;;;;;;5038465;28;20033;-29
2022/10/30 03:33:57;;;;;;;18.00;12.65;;;12.60;99.90;;;;;;5053536;28;20109;-29
2022/10/30 03:36:25;;;;;;;20.48;13.02;;;12.60;99.90;;;;;;5039348;28;20032;-29
2022/10/30 03:38:51;;;;;;;21.48;12.98;;;12.60;99.90;;;;;;5043195;28;20482;-28
2022/10/30 03:41:16;;;;;;;19.00;12.25;;;12.60;99.90;;;;;;5035434;28;20045;-29
2022/10/30 03:43:42;;;;;;;23.55;12.20;;;12.60;99.90;;;;;;5047805;28;20032;-29
2022/10/30 03:46:10;;;;;;;17.52;13.35;;;12.50;99.90;;;;;;5046712;28;20478;-29
2022/10/30 03:48:36;;;;;;;21.08;12.50;;;12.60;99.90;;;;;;5052584;28;20037;-29
2022/10/30 03:51:02;;;;;;;20.23;13.05;;;12.60;99.90;;;;;;5060177;28;20036;-29
2022/10/30 03:53:29;;;;;;;19.42;12.20;;;12.60;99.90;;;;;;5047660;28;20398;-29
2022/10/30 03:56:00;;;;;;;19.13;12.05;;;12.70;99.90;;;;;;5024842;28;20309;-29
2022/10/30 03:58:27;;;;;;;19.67;12.52;;;12.60;99.90;;;;;;5047052;28;20086;-29
2022/10/30 04:00:53;;;;;;;19.67;12.02;;;12.60;99.90;;;;;;5047145;28;20049;-29
2022/10/30 04:03:19;;;;;;;20.00;12.93;;;12.60;99.90;;;;;;5042748;28;20429;-29
2022/10/30 04:05:44;;;;;;;21.92;13.32;;;12.50;99.90;;;;;;5043792;28;20497;-29
2022/10/30 04:08:13;;;;;;;19.85;12.30;;;12.40;99.90;;;;;;5041841;28;20024;-29
2022/10/30 04:10:43;;;;;;;17.10;12.27;;;12.40;99.90;;;;;;5044977;28;20033;-29
2022/10/30 04:13:10;;;;;;;17.95;12.25;;;12.40;99.90;;;;;;5048582;28;20037;-29
2022/10/30 04:15:36;;;;;;;19.23;12.98;;;12.40;99.90;;;;;;5051211;28;20421;-29
2022/10/30 04:18:02;;;;;;;18.60;12.20;;;12.40;99.90;;;;;;5063931;28;20040;-29
2022/10/30 04:20:29;;;;;;;18.95;13.00;;;12.30;99.90;;;;;;5052645;28;20048;-29
2022/10/30 04:23:00;;;;;;;22.90;13.18;;;12.30;99.90;;;;;;5042061;28;20032;-29
2022/10/30 04:25:26;;;;;;;22.77;12.93;;;12.30;99.90;;;;;;5054894;28;20052;-29
2022/10/30 04:27:52;;;;;;;21.08;12.23;;;12.30;99.90;;;;;;5054834;28;20028;-29
2022/10/30 04:30:20;;;;;;;22.65;13.60;;;12.30;99.90;;;;;;5044345;28;20047;-29
2022/10/30 04:32:47;;;;;;;24.27;13.77;;;12.30;99.90;;;;;;5051470;28;20052;-29
2022/10/30 04:35:14;;;;;;;19.77;13.65;;;12.30;99.90;;;;;;5024273;28;20041;-29
2022/10/30 04:37:40;;;;;;;20.50;13.80;;;12.30;99.90;;;;;;5048958;28;20128;-29
2022/10/30 04:40:07;;;;;;;20.55;14.43;;;12.30;99.90;;;;;;5044951;28;20064;-29
2022/10/30 04:42:33;;;;;;;21.15;13.40;;;12.30;99.90;;;;;;5044155;28;20444;-29
2022/10/30 04:45:01;;;;;;;18.42;13.15;;;12.30;99.90;;;;;;5048979;28;20094;-29
2022/10/30 04:47:28;;;;;;;22.05;13.75;;;12.30;99.90;;;;;;5047619;28;20498;-29
2022/10/30 04:49:54;;;;;;;20.92;13.07;;;12.30;99.90;;;;;;5044472;28;20094;-29
2022/10/30 04:52:19;;;;;;;22.45;13.45;;;12.20;99.90;;;;;;5039053;28;20033;-29
2022/10/30 04:54:45;;;;;;;16.42;12.95;;;12.20;99.90;;;;;;5067185;28;20449;-29
2022/10/30 04:57:11;;;;;;;19.83;13.00;;;12.20;99.90;;;;;;5055526;28;20037;-28
2022/10/30 04:59:36;;;;;;;20.45;12.80;;;12.20;99.90;;;;;;5040431;28;20453;-29
2022/10/30 05:02:02;;;;;;;18.90;12.55;;;12.10;99.90;;;;;;5045749;28;20095;-29
2022/10/30 05:04:28;;;;;;;21.02;13.70;;;12.10;99.90;;;;;;5043113;28;20032;-29
2022/10/30 05:06:54;;;;;;;21.65;14.23;;;12.10;99.90;;;;;;5041978;28;20405;-29
2022/10/30 05:09:19;;;;;;;15.82;12.10;;;12.10;99.90;;;;;;5032668;28;20036;-29
2022/10/30 05:11:45;;;;;;;19.27;12.52;;;12.00;99.90;;;;;;5044310;28;20032;-29
2022/10/30 05:14:11;;;;;;;18.00;13.18;;;12.00;99.90;;;;;;5047434;28;20170;-29
2022/10/30 05:16:37;;;;;;;18.30;12.13;;;11.90;99.90;;;;;;5047655;28;20036;-29
2022/10/30 05:19:02;;;;;;;17.52;12.75;;;11.80;99.90;;;;;;5046438;28;20024;-29
2022/10/30 05:21:28;;;;;;;21.50;12.35;;;11.80;99.90;;;;;;5047600;28;20037;-29
2022/10/30 05:23:54;;;;;;;17.83;12.95;;;11.80;99.90;;;;;;5043835;28;20032;-29
2022/10/30 05:26:20;;;;;;;20.60;12.55;;;11.70;99.90;;;;;;5044412;28;20045;-29
2022/10/30 05:28:46;;;;;;;20.05;14.35;;;11.70;99.90;;;;;;5046884;28;20075;-29
2022/10/30 05:31:12;;;;;;;17.52;12.68;;;11.60;99.90;;;;;;5045382;28;20036;-29
2022/10/30 05:33:37;;;;;;;18.08;13.15;;;11.60;99.90;;;;;;5050028;28;20044;-29
2022/10/30 05:36:03;;;;;;;21.77;13.68;;;11.60;99.90;;;;;;5049025;28;20486;-29
2022/10/30 05:38:29;;;;;;;18.77;12.88;;;11.50;99.90;;;;;;5039865;28;20044;-29
2022/10/30 05:40:55;;;;;;;17.95;13.80;;;11.50;99.90;;;;;;5037962;28;20041;-29
2022/10/30 05:43:20;;;;;;;23.75;13.85;;;11.40;99.90;;;;;;5045057;28;20417;-29
2022/10/30 05:45:49;;;;;;;19.48;13.77;;;11.50;99.90;;;;;;5046922;28;20043;-29
2022/10/30 05:48:15;;;;;;;18.35;12.65;;;11.40;99.90;;;;;;5042388;28;20040;-29
2022/10/30 05:50:41;;;;;;;17.73;12.68;;;11.40;99.90;;;;;;5048273;28;20040;-29
2022/10/30 05:53:08;;;;;;;17.98;12.88;;;11.40;99.90;;;;;;5041382;28;20312;-29
2022/10/30 05:55:35;;;;;;;22.08;14.25;;;11.40;99.90;;;;;;5051144;28;20126;-30
2022/10/30 05:58:05;;;;;;;20.55;13.15;;;11.30;99.90;;;;;;5047131;28;20552;-31
2022/10/30 06:00:33;;;;;;;25.02;14.38;;;11.30;99.90;;;;;;5049070;28;20497;-29
2022/10/30 06:03:04;;;;;;;19.98;14.35;;;11.30;99.90;;;;;;5043686;28;20044;-29
2022/10/30 06:05:32;;;;;;;20.77;14.18;;;11.30;99.90;;;;;;5065028;28;20127;-29
2022/10/30 06:07:57;;;;;;;22.67;13.57;;;11.30;99.90;;;;;;5046665;28;20033;-29
2022/10/30 06:10:24;;;;;;;18.42;13.88;;;11.30;99.90;;;;;;5043868;28;20090;-30
2022/10/30 06:12:53;;;;;;;19.02;14.35;;;11.20;99.90;;;;;;5042347;28;20041;-29
2022/10/30 06:15:19;;;;;;;16.42;13.77;;;11.30;99.90;;;;;;5045423;28;20040;-30
2022/10/30 06:17:45;;;;;;;20.85;13.77;;;11.30;99.90;;;;;;5067492;28;20041;-30
2022/10/30 06:20:11;;;;;;;20.92;14.68;;;11.20;99.90;;;;;;5040771;28;20393;-29
2022/10/30 06:22:37;;;;;;;20.83;14.30;;;11.20;99.90;;;;;;5041621;28;20043;-29
2022/10/30 06:25:03;;;;;;;21.85;14.05;;;11.20;99.90;;;;;;5044123;28;20613;-29
2022/10/30 06:27:28;;;;;;;26.05;14.60;;;11.20;99.90;;;;;;5047602;28;20509;-29
2022/10/30 06:29:56;;;;;;;26.75;16.17;;;11.20;99.90;;;;;;5048637;28;20043;-30
2022/10/30 06:32:22;;;;;;;26.17;17.02;;;11.30;99.90;;;;;;5032906;28;20490;-29
2022/10/30 06:34:48;;;;;;;21.98;15.48;;;11.40;99.90;;;;;;5051501;28;20055;-29
2022/10/30 06:37:13;;;;;;;24.30;15.68;;;11.40;99.90;;;;;;5047691;28;20040;-29
2022/10/30 06:39:39;;;;;;;29.13;17.55;;;11.40;99.90;;;;;;5048719;28;20040;-29
2022/10/30 06:42:05;;;;;;;24.58;16.13;;;11.40;99.90;;;;;;5066012;28;20513;-29
2022/10/30 06:44:31;;;;;;;28.15;18.55;;;11.50;99.90;;;;;;5044783;28;20127;-29
2022/10/30 06:46:56;;;;;;;26.48;15.48;;;11.50;99.90;;;;;;5043717;28;20043;-29
2022/10/30 06:49:24;;;;;;;25.33;16.63;;;11.50;99.90;;;;;;5044370;28;20114;-29
2022/10/30 06:51:50;;;;;;;23.60;16.17;;;11.50;99.90;;;;;;5052800;28;20489;-29
2022/10/30 06:54:16;;;;;;;26.02;17.30;;;11.50;99.90;;;;;;5029271;28;20524;-29
2022/10/30 06:56:41;;;;;;;28.33;16.25;;;11.60;99.90;;;;;;5047554;28;20049;-29
2022/10/30 06:59:08;;;;;;;24.73;16.48;;;11.60;99.90;;;;;;5032818;28;20048;-29
2022/10/30 07:01:34;;;;;;;25.17;16.77;;;11.70;99.90;;;;;;5036158;28;20533;-29
2022/10/30 07:04:00;;;;;;;21.13;15.68;;;11.70;99.90;;;;;;5039064;28;20037;-29
2022/10/30 07:06:26;;;;;;;27.08;17.05;;;11.80;99.90;;;;;;5040694;28;20106;-29
2022/10/30 07:08:52;;;;;;;26.90;19.25;;;11.80;99.90;;;;;;5036949;28;20474;-29
2022/10/30 07:11:18;;;;;;;22.98;17.77;;;11.90;99.90;;;;;;5041930;28;20040;-27
2022/10/30 07:13:44;;;;;;;22.85;16.73;;;12.00;99.90;;;;;;5042439;28;20040;-29
2022/10/30 07:16:10;;;;;;;25.80;17.75;;;12.00;99.90;;;;;;5044519;28;20170;-29
2022/10/30 07:18:36;;;;;;;24.25;17.30;;;12.10;99.90;;;;;;5042897;28;20390;-29
2022/10/30 07:21:02;;;;;;;27.20;17.00;;;12.20;99.90;;;;;;5044456;28;20075;-29
2022/10/30 07:23:27;;;;;;;25.20;16.52;;;12.20;99.90;;;;;;5047499;28;20409;-29
2022/10/30 07:25:53;;;;;;;25.05;16.83;;;12.30;99.90;;;;;;5045146;28;20036;-29
2022/10/30 07:28:19;;;;;;;25.15;17.58;;;12.30;99.90;;;;;;5051871;28;20040;-29
2022/10/30 07:30:45;;;;;;;29.92;17.60;;;12.30;99.90;;;;;;5046819;28;20418;-27
2022/10/30 07:33:10;;;;;;;21.27;15.70;;;12.40;99.90;;;;;;5061278;28;20493;-29
2022/10/30 07:35:36;;;;;;;20.30;15.18;;;12.40;99.90;;;;;;5039802;28;20048;-29
2022/10/30 07:38:08;;;;;;;28.35;18.10;;;12.50;99.90;;;;;;5037826;28;20050;-29
2022/10/30 07:40:34;;;;;;;22.80;16.02;;;12.50;99.90;;;;;;5048734;28;20128;-29
2022/10/30 07:43:01;;;;;;;27.52;17.55;;;12.60;99.90;;;;;;5046500;28;20136;-29
2022/10/30 07:45:27;;;;;;;22.60;16.17;;;12.70;99.90;;;;;;5046680;28;20493;-29
2022/10/30 07:47:54;;;;;;;23.38;16.02;;;12.80;99.90;;;;;;5029895;28;20036;-29
2022/10/30 07:50:20;;;;;;;23.23;16.70;;;12.90;99.90;;;;;;5043544;28;20039;-29
2022/10/30 07:52:46;;;;;;;27.70;17.10;;;13.00;99.90;;;;;;5054504;28;20041;-29
2022/10/30 07:55:12;;;;;;;19.50;15.75;;;13.10;99.90;;;;;;5047473;28;20086;-29
2022/10/30 07:57:39;;;;;;;22.83;15.82;;;13.10;99.90;;;;;;5036183;28;20064;-29
2022/10/30 08:00:08;;;;;;;21.92;17.27;;;13.30;99.90;;;;;;5041232;28;20033;-29
2022/10/30 08:02:34;;;;;;;22.17;17.30;;;13.40;99.90;;;;;;5047805;28;20040;-29
2022/10/30 08:05:00;;;;;;;25.65;16.70;;;13.50;99.90;;;;;;5038499;28;20119;-29
2022/10/30 08:07:35;;;;;;;22.35;15.88;;;13.70;99.90;;;;;;5046327;28;20063;-29
2022/10/30 08:10:02;;;;;;;22.25;15.98;;;14.00;99.90;;;;;;5045609;28;20469;-29
2022/10/30 08:12:28;;;;;;;21.92;15.48;;;14.40;99.90;;;;;;5036077;28;20049;-30
2022/10/30 08:14:53;;;;;;;20.17;15.60;;;15.00;99.90;;;;;;5043799;28;20548;-28
2022/10/30 08:17:20;;;;;;;22.98;15.13;;;15.50;99.90;;;;;;5052406;28;20043;-28
2022/10/30 08:19:46;;;;;;;20.48;14.77;;;15.90;99.90;;;;;;5035312;28;20037;-28
2022/10/30 08:22:12;;;;;;;19.17;14.10;;;16.30;99.90;;;;;;5043317;28;20136;-28
2022/10/30 08:24:38;;;;;;;19.70;13.43;;;16.70;99.90;;;;;;5045513;28;20527;-29
2022/10/30 08:27:05;;;;;;;21.38;13.57;;;17.00;99.90;;;;;;5039388;28;20064;-29
2022/10/30 08:29:31;;;;;;;22.42;13.88;;;17.40;99.90;;;;;;5038557;28;20040;-29
2022/10/30 08:31:56;;;;;;;17.85;13.85;;;17.70;99.90;;;;;;5039270;28;20033;-30
2022/10/30 08:34:23;;;;;;;19.02;12.52;;;17.90;99.90;;;;;;5040156;28;20544;-30
2022/10/30 08:36:49;;;;;;;19.67;12.88;;;18.20;99.90;;;;;;5044007;28;20044;-30
2022/10/30 08:39:16;;;;;;;18.88;13.00;;;18.40;99.90;;;;;;5045280;28;20037;-30
2022/10/30 08:41:41;;;;;;;18.70;12.63;;;18.80;99.90;;;;;;5046712;28;20412;-30
2022/10/30 08:44:07;;;;;;;19.33;12.15;;;19.10;99.90;;;;;;5039992;28;20048;-29
2022/10/30 08:46:33;;;;;;;18.05;12.05;;;19.20;99.90;;;;;;5045384;28;20033;-29
2022/10/30 08:48:59;;;;;;;17.00;11.82;;;19.40;99.90;;;;;;5041100;28;20481;-29
2022/10/30 08:51:24;;;;;;;18.15;12.43;;;19.60;99.90;;;;;;5043498;28;20448;-29
2022/10/30 08:53:50;;;;;;;17.17;12.40;;;19.70;99.90;;;;;;5038872;28;20120;-29
2022/10/30 08:56:16;;;;;;;15.70;12.30;;;19.70;99.90;;;;;;5042121;28;20039;-29
2022/10/30 08:58:42;;;;;;;17.38;12.32;;;19.80;99.90;;;;;;5051656;28;20417;-29
2022/10/30 09:01:08;;;;;;;16.52;12.27;;;19.70;99.90;;;;;;5033775;28;20037;-29
2022/10/30 09:03:34;;;;;;;19.58;12.73;;;19.80;99.90;;;;;;5044219;28;20460;-29
2022/10/30 09:06:00;;;;;;;20.35;12.65;;;20.00;99.90;;;;;;5047079;28;20367;-29
2022/10/30 09:08:27;;;;;;;20.52;12.45;;;20.20;99.90;;;;;;5054387;28;20051;-29
2022/10/30 09:10:54;;;;;;;19.40;13.55;;;20.30;99.90;;;;;;5043738;28;20562;-29
2022/10/30 09:13:20;;;;;;;19.60;12.55;;;20.60;99.90;;;;;;5054536;28;20086;-29
2022/10/30 09:15:46;;;;;;;18.02;11.88;;;21.00;99.90;;;;;;5043517;28;20033;-29
2022/10/30 09:18:12;;;;;;;17.52;12.30;;;21.20;99.90;;;;;;5046924;28;20211;-29
2022/10/30 09:20:37;;;;;;;16.20;11.70;;;21.30;99.90;;;;;;5038750;28;20044;-30
2022/10/30 09:23:03;;;;;;;16.80;13.20;;;21.50;99.90;;;;;;5041871;28;20490;-29
2022/10/30 09:25:29;;;;;;;19.15;11.82;;;21.60;99.90;;;;;;5052158;28;20037;-29
2022/10/30 09:27:55;;;;;;;15.98;12.15;;;21.80;99.90;;;;;;5049544;28;20188;-30
2022/10/30 09:30:21;;;;;;;13.73;11.85;;;22.10;99.90;;;;;;5045694;28;20045;-28
2022/10/30 09:32:59;;;;;;;14.57;11.52;;;22.40;99.90;;;;;;5042367;28;20659;-29
2022/10/30 09:35:24;;;;;;;16.48;11.75;;;22.60;99.90;;;;;;5045363;28;20115;-30
2022/10/30 09:37:50;;;;;;;16.52;12.38;;;22.60;99.90;;;;;;5046767;28;20115;-30
2022/10/30 09:40:37;;;;;;;13.63;11.25;;;22.80;99.90;;;;;;5043765;28;20083;-30
2022/10/30 09:44:08;;;;;;;18.67;11.85;;;23.00;99.90;;;;;;5065022;28;20045;-30
2022/10/30 09:47:00;;;;;;;16.48;11.82;;;23.30;99.90;;;;;;4987387;28;20038;-30
2022/10/30 09:49:46;;;;;;;18.13;11.15;;;23.50;99.90;;;;;;4985607;28;20592;-30
2022/10/30 09:52:12;;;;;;;15.60;11.07;;;23.90;99.90;;;;;;5061388;28;20072;-30
2022/10/30 09:54:56;;;;;;;15.07;11.00;;;24.10;99.90;;;;;;5040753;28;20368;-30
2022/10/30 09:57:27;;;;;;;16.23;11.60;;;24.20;99.90;;;;;;5044099;28;20441;-30
2022/10/30 10:00:12;;;;;;;14.77;10.77;;;24.40;99.90;;;;;;5043146;28;20040;-30
2022/10/30 10:03:08;;;;;;;14.10;10.85;;;24.50;99.90;;;;;;5036587;28;20560;-30
2022/10/30 10:05:44;;;;;;;21.38;11.80;;;24.70;99.90;;;;;;5047618;28;20033;-28
2022/10/30 10:08:36;;;;;;;15.75;10.95;;;24.60;99.90;;;;;;5054185;28;20037;-28
2022/10/30 10:11:12;;;;;;;16.38;11.55;;;24.70;99.90;;;;;;4998589;28;20069;-28
2022/10/30 10:13:45;;;;;;;18.65;11.10;;;24.60;99.90;;;;;;5046009;28;20528;-28
2022/10/30 10:16:22;;;;;;;17.20;11.57;;;24.50;99.90;;;;;;5067390;28;20048;-28
2022/10/30 10:19:09;;;;;;;15.32;12.25;;;24.50;99.90;;;;;;5050717;28;20079;-30
2022/10/30 10:21:43;;;;;;;16.13;11.10;;;24.70;99.90;;;;;;5045922;28;20061;-30
2022/10/30 10:24:23;;;;;;;15.77;11.93;;;24.80;99.90;;;;;;5043871;28;20036;-30
2022/10/30 10:27:05;;;;;;;16.17;11.90;;;24.80;99.90;;;;;;5047342;28;20037;-30
2022/10/30 10:29:31;;;;;;;14.88;11.02;;;25.10;99.90;;;;;;5061732;28;20482;-28
2022/10/30 10:32:24;;;;;;;16.30;11.35;;;25.40;99.90;;;;;;5041186;28;20040;-28
2022/10/30 10:35:14;;;;;;;15.32;10.98;;;25.80;98.80;;;;;;5046998;28;20489;-29
2022/10/30 10:37:39;;;;;;;18.08;11.02;;;26.00;99.90;;;;;;5044603;28;20494;-29
2022/10/30 10:40:17;;;;;;;17.42;12.23;;;26.30;99.90;;;;;;5045155;28;20085;-29
2022/10/30 10:42:56;;;;;;;18.85;11.65;;;26.50;99.90;;;;;;5047442;28;20764;-28
2022/10/30 10:45:31;;;;;;;17.70;11.23;;;26.50;97.50;;;;;;5059041;28;20081;-28
2022/10/30 10:48:06;;;;;;;13.45;10.75;;;26.50;99.90;;;;;;5041290;28;20040;-28
2022/10/30 10:50:35;;;;;;;15.65;11.23;;;26.70;99.90;;;;;;5043761;28;20048;-28
2022/10/30 10:53:51;;;;;;;16.33;12.25;;;26.50;99.90;;;;;;5054402;28;20540;-28
2022/10/30 10:56:19;;;;;;;14.05;11.80;;;26.40;99.20;;;;;;5044245;28;20052;-29
2022/10/30 10:58:56;;;;;;;14.68;11.18;;;26.70;98.60;;;;;;5045304;28;20041;-30
2022/10/30 11:01:30;;;;;;;15.48;10.48;;;26.80;95.90;;;;;;5046272;28;20048;-29
2022/10/30 11:04:03;;;;;;;14.55;10.40;;;26.70;94.90;;;;;;5045557;28;20079;-29
2022/10/30 11:06:37;;;;;;;14.85;11.35;;;26.60;97.10;;;;;;5048887;28;20498;-30
2022/10/30 11:09:20;;;;;;;15.23;11.25;;;26.20;96.40;;;;;;5043622;28;20033;-30
2022/10/30 11:11:48;;;;;;;18.33;11.70;;;25.80;99.90;;;;;;5045686;28;20062;-30
2022/10/30 11:14:20;;;;;;;16.90;12.00;;;25.50;99.90;;;;;;5034088;28;20040;-30
2022/10/30 11:17:10;;;;;;;17.08;11.73;;;25.30;99.90;;;;;;5048271;28;20040;-30
2022/10/30 11:19:35;;;;;;;14.70;11.18;;;25.10;99.90;;;;;;5063086;28;20401;-31
2022/10/30 11:22:11;;;;;;;15.77;11.55;;;25.00;99.90;;;;;;5039183;28;20120;-31
2022/10/30 11:24:37;;;;;;;16.30;11.68;;;25.10;99.90;;;;;;5025430;28;20106;-31
2022/10/30 11:27:36;;;;;;;15.88;11.40;;;25.20;99.90;;;;;;5044213;28;20032;-30
2022/10/30 11:30:04;;;;;;;14.85;11.18;;;25.60;99.90;;;;;;5021395;28;20106;-31
2022/10/30 11:32:34;;;;;;;16.77;11.10;;;25.90;99.90;;;;;;5064105;28;20032;-31
2022/10/30 11:35:01;;;;;;;16.40;11.05;;;26.20;99.90;;;;;;5051058;28;20040;-31
2022/10/30 11:37:32;;;;;;;15.35;10.90;;;26.40;99.30;;;;;;5050079;28;20040;-31
2022/10/30 11:40:07;;;;;;;15.88;11.38;;;26.60;90.10;;;;;;5048062;28;20391;-31
2022/10/30 11:42:34;;;;;;;17.83;10.68;;;26.40;91.40;;;;;;5050164;28;20103;-31
2022/10/30 11:44:59;;;;;;;19.70;12.27;;;25.90;96.90;;;;;;5049469;28;20120;-31
2022/10/30 11:47:35;;;;;;;15.55;11.32;;;25.40;99.40;;;;;;5064852;28;20108;-31
2022/10/30 11:50:06;;;;;;;14.00;11.05;;;25.10;99.90;;;;;;5063781;28;20036;-30
2022/10/30 11:52:39;;;;;;;20.10;11.15;;;24.70;99.90;;;;;;5067726;28;20132;-30
2022/10/30 11:55:14;;;;;;;17.15;11.25;;;24.50;99.90;;;;;;5068238;28;20091;-30
2022/10/30 11:57:50;;;;;;;18.48;11.02;;;24.50;99.90;;;;;;5051181;28;20115;-30
2022/10/30 12:00:22;;;;;;;18.92;11.05;;;24.90;99.90;;;;;;5066630;28;20074;-31
2022/10/30 12:02:50;;;;;;;17.52;11.00;;;25.00;99.90;;;;;;5051240;28;20036;-30
2022/10/30 12:05:38;;;;;;;14.52;11.40;;;25.40;99.90;;;;;;5052352;28;20054;-31
2022/10/30 12:08:07;;;;;;;18.77;12.20;;;26.10;99.90;;;;;;5048337;28;20163;-31
2022/10/30 12:10:52;;;;;;;21.33;10.85;;;26.70;99.90;;;;;;5069710;28;20033;-30
2022/10/30 12:13:20;;;;;;;18.55;10.68;;;26.90;91.80;;;;;;5052558;28;20044;-31
2022/10/30 12:15:50;;;;;;;15.65;11.13;;;26.90;94.70;;;;;;5053841;28;20379;-31
2022/10/30 12:18:26;;;;;;;18.98;11.95;;;27.10;92.10;;;;;;5071212;28;20036;-30
2022/10/30 12:20:55;;;;;;;19.33;10.95;;;27.30;90.70;;;;;;5046360;28;20578;-30
2022/10/30 12:23:24;;;;;;;17.58;11.73;;;27.40;91.60;;;;;;5068628;28;20033;-30
2022/10/30 12:25:56;;;;;;;14.68;10.77;;;27.50;92.30;;;;;;5056047;28;20501;-30
2022/10/30 12:28:25;;;;;;;15.83;11.67;;;27.80;83.50;;;;;;5053666;28;20397;-30
2022/10/30 12:31:22;;;;;;;17.15;10.45;;;27.70;80.50;;;;;;5054615;28;20317;-30
2022/10/30 12:34:07;;;;;;;16.77;10.40;;;27.00;80.50;;;;;;5040770;28;20059;-30
2022/10/30 12:36:41;;;;;;;14.70;10.95;;;26.40;92.30;;;;;;5039845;28;20068;-29
2022/10/30 12:39:35;;;;;;;15.63;10.68;;;25.60;98.50;;;;;;5057848;28;20398;-29
2022/10/30 12:42:06;;;;;;;18.00;11.27;;;25.00;99.90;;;;;;5055037;28;20489;-30